sensor_id;sensor_type;location;lat;lon;timestamp;pressure;altitude;pressure_sealevel;temperature;humidity
15308;BME280;7755;52.208;6.964;2023-05-02T00:03:34;101468.66;;;11.83;100.00
15308;BME280;7755;52.208;6.964;2023-05-02T00:07:37;101470.38;;;11.77;100.00
15308;BME280;7755;52.208;6.964;2023-05-02T00:11:40;101473.00;;;11.72;100.00
15308;BME280;7755;52.208;6.964;2023-05-02T00:15:43;101466.09;;;11.69;100.00
15308;BME280;7755;52.208;6.964;2023-05-02T00:19:47;101465.84;;;11.71;100.00
15308;BME280;7755;52.208;6.964;2023-05-02T00:23:50;101471.09;;;11.72;100.00
15308;BME280;7755;52.208;6.964;2023-05-02T00:27:53;101468.28;;;11.79;100.00
15308;BME280;7755;52.208;6.964;2023-05-02T00:31:56;101465.19;;;11.75;100.00
15308;BME280;7755;52.208;6.964;2023-05-02T00:36:00;101479.56;;;11.83;100.00
15308;BME280;7755;52.208;6.964;2023-05-02T00:40:04;101482.06;;;11.84;100.00
15308;BME280;7755;52.208;6.964;2023-05-02T00:44:07;101480.84;;;11.80;100.00
15308;BME280;7755;52.208;6.964;2023-05-02T00:48:10;101486.28;;;11.80;100.00
15308;BME280;7755;52.208;6.964;2023-05-02T00:52:14;101482.88;;;11.85;100.00
15308;BME280;7755;52.208;6.964;2023-05-02T00:56:17;101473.19;;;11.89;100.00
15308;BME280;7755;52.208;6.964;2023-05-02T01:00:21;101482.28;;;11.83;100.00
15308;BME280;7755;52.208;6.964;2023-05-02T01:04:33;101480.16;;;11.85;100.00
15308;BME280;7755;52.208;6.964;2023-05-02T01:08:47;101471.16;;;11.84;100.00
15308;BME280;7755;52.208;6.964;2023-05-02T01:12:57;101479.47;;;11.89;100.00
15308;BME280;7755;52.208;6.964;2023-05-02T01:17:03;101485.16;;;11.88;100.00
15308;BME280;7755;52.208;6.964;2023-05-02T01:21:08;101483.72;;;11.85;100.00
15308;BME280;7755;52.208;6.964;2023-05-02T01:25:26;101472.63;;;11.87;100.00
15308;BME280;7755;52.208;6.964;2023-05-02T01:29:33;101475.94;;;11.89;100.00
15308;BME280;7755;52.208;6.964;2023-05-02T01:33:39;101480.56;;;11.88;100.00
15308;BME280;7755;52.208;6.964;2023-05-02T01:37:43;101480.22;;;11.96;100.00
15308;BME280;7755;52.208;6.964;2023-05-02T01:41:50;101491.44;;;11.88;100.00
15308;BME280;7755;52.208;6.964;2023-05-02T01:45:56;101482.06;;;11.84;100.00
15308;BME280;7755;52.208;6.964;2023-05-02T01:50:01;101498.25;;;11.79;100.00
15308;BME280;7755;52.208;6.964;2023-05-02T01:54:06;101493.44;;;11.81;100.00
15308;BME280;7755;52.208;6.964;2023-05-02T01:58:10;101499.72;;;11.82;100.00
15308;BME280;7755;52.208;6.964;2023-05-02T02:02:15;101498.69;;;11.76;100.00
15308;BME280;7755;52.208;6.964;2023-05-02T02:06:20;101501.41;;;11.76;100.00
15308;BME280;7755;52.208;6.964;2023-05-02T02:10:25;101504.53;;;11.80;100.00
15308;BME280;7755;52.208;6.964;2023-05-02T02:14:33;101515.63;;;11.78;100.00
15308;BME280;7755;52.208;6.964;2023-05-02T02:18:38;101511.03;;;11.79;100.00
15308;BME280;7755;52.208;6.964;2023-05-02T02:22:42;101516.06;;;11.82;100.00
15308;BME280;7755;52.208;6.964;2023-05-02T02:26:45;101523.81;;;11.78;100.00
15308;BME280;7755;52.208;6.964;2023-05-02T02:30:48;101529.06;;;11.80;100.00
15308;BME280;7755;52.208;6.964;2023-05-02T02:34:53;101517.53;;;11.77;100.00
15308;BME280;7755;52.208;6.964;2023-05-02T02:39:03;101526.03;;;11.69;100.00
15308;BME280;7755;52.208;6.964;2023-05-02T02:43:16;101529.13;;;11.73;100.00
15308;BME280;7755;52.208;6.964;2023-05-02T02:47:24;101540.09;;;11.66;100.00
15308;BME280;7755;52.208;6.964;2023-05-02T02:51:33;101559.25;;;11.60;100.00
15308;BME280;7755;52.208;6.964;2023-05-02T02:55:45;101560.28;;;11.40;100.00
15308;BME280;7755;52.208;6.964;2023-05-02T02:59:57;101570.25;;;11.28;100.00
15308;BME280;7755;52.208;6.964;2023-05-02T03:04:04;101588.63;;;11.08;100.00
15308;BME280;7755;52.208;6.964;2023-05-02T03:08:08;101586.03;;;10.94;100.00
15308;BME280;7755;52.208;6.964;2023-05-02T03:12:11;101596.31;;;10.92;100.00
15308;BME280;7755;52.208;6.964;2023-05-02T03:16:34;101609.72;;;10.87;100.00
15308;BME280;7755;52.208;6.964;2023-05-02T03:20:40;101616.28;;;10.80;100.00
15308;BME280;7755;52.208;6.964;2023-05-02T03:24:45;101619.69;;;10.69;100.00
15308;BME280;7755;52.208;6.964;2023-05-02T03:28:48;101618.03;;;10.68;100.00
15308;BME280;7755;52.208;6.964;2023-05-02T03:32:57;101620.47;;;10.76;100.00
15308;BME280;7755;52.208;6.964;2023-05-02T03:37:01;101622.78;;;10.79;100.00
15308;BME280;7755;52.208;6.964;2023-05-02T03:41:06;101624.84;;;10.77;100.00
15308;BME280;7755;52.208;6.964;2023-05-02T03:45:09;101637.44;;;10.78;100.00
15308;BME280;7755;52.208;6.964;2023-05-02T03:49:12;101639.69;;;10.81;100.00
15308;BME280;7755;52.208;6.964;2023-05-02T03:53:18;101644.31;;;10.80;100.00
15308;BME280;7755;52.208;6.964;2023-05-02T03:57:30;101652.50;;;10.74;100.00
15308;BME280;7755;52.208;6.964;2023-05-02T04:01:33;101654.03;;;10.63;100.00
15308;BME280;7755;52.208;6.964;2023-05-02T04:05:36;101662.63;;;10.60;100.00
15308;BME280;7755;52.208;6.964;2023-05-02T04:09:39;101662.00;;;10.58;100.00
15308;BME280;7755;52.208;6.964;2023-05-02T04:13:46;101664.31;;;10.54;100.00
15308;BME280;7755;52.208;6.964;2023-05-02T04:17:48;101676.22;;;10.60;100.00
15308;BME280;7755;52.208;6.964;2023-05-02T04:21:52;101679.59;;;10.55;100.00
15308;BME280;7755;52.208;6.964;2023-05-02T04:25:55;101681.28;;;10.50;100.00
15308;BME280;7755;52.208;6.964;2023-05-02T04:30:12;101689.00;;;10.53;100.00
15308;BME280;7755;52.208;6.964;2023-05-02T04:34:19;101700.13;;;10.51;100.00
15308;BME280;7755;52.208;6.964;2023-05-02T04:38:23;101694.22;;;10.54;100.00
15308;BME280;7755;52.208;6.964;2023-05-02T04:42:25;101710.31;;;10.56;100.00
15308;BME280;7755;52.208;6.964;2023-05-02T04:46:46;101709.69;;;10.60;100.00
15308;BME280;7755;52.208;6.964;2023-05-02T04:50:50;101720.19;;;10.50;100.00
15308;BME280;7755;52.208;6.964;2023-05-02T04:54:54;101730.66;;;10.47;100.00
15308;BME280;7755;52.208;6.964;2023-05-02T04:58:58;101743.91;;;10.23;100.00
15308;BME280;7755;52.208;6.964;2023-05-02T05:03:03;101767.94;;;9.93;100.00
15308;BME280;7755;52.208;6.964;2023-05-02T05:07:07;101772.56;;;9.73;100.00
15308;BME280;7755;52.208;6.964;2023-05-02T05:11:10;101780.91;;;9.58;100.00
15308;BME280;7755;52.208;6.964;2023-05-02T05:15:13;101787.16;;;9.52;100.00
15308;BME280;7755;52.208;6.964;2023-05-02T05:19:21;101790.47;;;9.47;100.00
15308;BME280;7755;52.208;6.964;2023-05-02T05:23:24;101800.50;;;9.40;100.00
15308;BME280;7755;52.208;6.964;2023-05-02T05:27:28;101806.72;;;9.27;100.00
15308;BME280;7755;52.208;6.964;2023-05-02T05:31:31;101824.22;;;9.12;100.00
15308;BME280;7755;52.208;6.964;2023-05-02T05:35:36;101827.34;;;9.09;100.00
15308;BME280;7755;52.208;6.964;2023-05-02T05:39:39;101838.38;;;9.07;100.00
15308;BME280;7755;52.208;6.964;2023-05-02T05:43:42;101859.00;;;8.95;100.00
15308;BME280;7755;52.208;6.964;2023-05-02T05:47:46;101858.06;;;8.74;100.00
15308;BME280;7755;52.208;6.964;2023-05-02T05:51:50;101875.50;;;8.65;100.00
15308;BME280;7755;52.208;6.964;2023-05-02T05:55:53;101879.31;;;8.71;100.00
15308;BME280;7755;52.208;6.964;2023-05-02T05:59:56;101884.34;;;8.74;100.00
15308;BME280;7755;52.208;6.964;2023-05-02T06:04:00;101886.59;;;8.70;100.00
15308;BME280;7755;52.208;6.964;2023-05-02T06:08:05;101892.53;;;8.81;100.00
15308;BME280;7755;52.208;6.964;2023-05-02T06:12:07;101908.78;;;8.81;100.00
15308;BME280;7755;52.208;6.964;2023-05-02T06:16:12;101909.09;;;8.64;100.00
15308;BME280;7755;52.208;6.964;2023-05-02T06:20:15;101931.50;;;8.52;100.00
15308;BME280;7755;52.208;6.964;2023-05-02T06:24:20;101926.66;;;8.40;100.00
15308;BME280;7755;52.208;6.964;2023-05-02T06:28:23;101931.03;;;8.41;100.00
15308;BME280;7755;52.208;6.964;2023-05-02T06:32:29;101934.22;;;8.30;100.00
15308;BME280;7755;52.208;6.964;2023-05-02T06:36:32;101943.66;;;8.34;100.00
15308;BME280;7755;52.208;6.964;2023-05-02T06:40:36;101948.41;;;8.32;100.00
15308;BME280;7755;52.208;6.964;2023-05-02T06:44:45;101960.38;;;8.38;100.00
15308;BME280;7755;52.208;6.964;2023-05-02T06:48:48;101976.75;;;8.51;100.00
15308;BME280;7755;52.208;6.964;2023-05-02T06:52:51;101987.91;;;8.63;100.00
15308;BME280;7755;52.208;6.964;2023-05-02T06:56:55;101995.25;;;8.69;100.00
15308;BME280;7755;52.208;6.964;2023-05-02T07:00:58;102003.03;;;8.79;100.00
15308;BME280;7755;52.208;6.964;2023-05-02T07:05:00;102002.72;;;8.88;100.00
15308;BME280;7755;52.208;6.964;2023-05-02T07:09:08;102007.56;;;8.99;100.00
15308;BME280;7755;52.208;6.964;2023-05-02T07:13:12;102006.78;;;9.06;100.00
15308;BME280;7755;52.208;6.964;2023-05-02T07:17:15;102015.66;;;9.21;100.00
15308;BME280;7755;52.208;6.964;2023-05-02T07:21:18;102028.63;;;9.25;100.00
15308;BME280;7755;52.208;6.964;2023-05-02T07:25:20;102023.88;;;9.34;99.42
15308;BME280;7755;52.208;6.964;2023-05-02T07:29:24;102033.47;;;9.30;96.68
15308;BME280;7755;52.208;6.964;2023-05-02T07:33:27;102032.59;;;9.23;95.27
15308;BME280;7755;52.208;6.964;2023-05-02T07:37:32;102032.84;;;9.28;92.10
15308;BME280;7755;52.208;6.964;2023-05-02T07:41:35;102039.19;;;9.42;91.55
15308;BME280;7755;52.208;6.964;2023-05-02T07:45:39;102049.50;;;9.60;91.41
15308;BME280;7755;52.208;6.964;2023-05-02T07:49:42;102043.91;;;9.74;89.46
15308;BME280;7755;52.208;6.964;2023-05-02T07:53:45;102042.75;;;9.90;84.09
15308;BME280;7755;52.208;6.964;2023-05-02T07:57:48;102047.63;;;10.15;80.63
15308;BME280;7755;52.208;6.964;2023-05-02T08:01:52;102060.06;;;10.37;77.60
15308;BME280;7755;52.208;6.964;2023-05-02T08:05:54;102059.06;;;10.64;73.69
15308;BME280;7755;52.208;6.964;2023-05-02T08:09:57;102065.13;;;10.73;73.53
15308;BME280;7755;52.208;6.964;2023-05-02T08:14:01;102073.50;;;10.91;68.44
15308;BME280;7755;52.208;6.964;2023-05-02T08:18:05;102066.59;;;10.89;67.75
15308;BME280;7755;52.208;6.964;2023-05-02T08:22:08;102067.41;;;11.16;67.55
15308;BME280;7755;52.208;6.964;2023-05-02T08:26:10;102083.50;;;11.31;63.32
15308;BME280;7755;52.208;6.964;2023-05-02T08:30:13;102088.78;;;11.12;60.41
15308;BME280;7755;52.208;6.964;2023-05-02T08:34:17;102085.63;;;10.89;60.83
15308;BME280;7755;52.208;6.964;2023-05-02T08:38:20;102086.06;;;11.06;59.92
15308;BME280;7755;52.208;6.964;2023-05-02T08:42:22;102097.16;;;11.17;60.99
15308;BME280;7755;52.208;6.964;2023-05-02T08:46:27;102105.28;;;11.37;59.81
15308;BME280;7755;52.208;6.964;2023-05-02T08:50:32;102109.28;;;11.41;57.56
15308;BME280;7755;52.208;6.964;2023-05-02T08:54:37;102119.53;;;11.53;55.76
15308;BME280;7755;52.208;6.964;2023-05-02T08:58:40;102132.13;;;11.47;55.53
15308;BME280;7755;52.208;6.964;2023-05-02T09:02:53;102136.75;;;11.20;53.81
15308;BME280;7755;52.208;6.964;2023-05-02T09:07:01;102126.88;;;11.59;53.64
15308;BME280;7755;52.208;6.964;2023-05-02T09:11:05;102138.53;;;11.99;51.81
15308;BME280;7755;52.208;6.964;2023-05-02T09:15:09;102140.84;;;11.89;52.38
15308;BME280;7755;52.208;6.964;2023-05-02T09:19:22;102144.59;;;12.01;51.34
15308;BME280;7755;52.208;6.964;2023-05-02T09:23:35;102142.34;;;12.36;51.30
15308;BME280;7755;52.208;6.964;2023-05-02T09:27:49;102139.91;;;12.60;51.30
15308;BME280;7755;52.208;6.964;2023-05-02T09:31:52;102148.56;;;12.56;50.31
15308;BME280;7755;52.208;6.964;2023-05-02T09:35:57;102149.19;;;12.52;51.71
15308;BME280;7755;52.208;6.964;2023-05-02T09:40:08;102169.88;;;12.28;51.23
15308;BME280;7755;52.208;6.964;2023-05-02T09:44:13;102176.16;;;12.35;49.96
15308;BME280;7755;52.208;6.964;2023-05-02T09:48:16;102174.63;;;12.46;51.16
15308;BME280;7755;52.208;6.964;2023-05-02T09:52:19;102187.97;;;12.67;51.72
15308;BME280;7755;52.208;6.964;2023-05-02T09:56:24;102191.97;;;12.58;51.53
15308;BME280;7755;52.208;6.964;2023-05-02T10:00:40;102192.25;;;12.43;52.36
15308;BME280;7755;52.208;6.964;2023-05-02T10:04:45;102200.75;;;12.22;52.16
15308;BME280;7755;52.208;6.964;2023-05-02T10:08:48;102204.56;;;12.08;52.39
15308;BME280;7755;52.208;6.964;2023-05-02T10:12:53;102203.28;;;12.03;52.71
15308;BME280;7755;52.208;6.964;2023-05-02T10:17:00;102208.34;;;12.00;53.55
15308;BME280;7755;52.208;6.964;2023-05-02T10:21:07;102213.59;;;11.88;53.61
15308;BME280;7755;52.208;6.964;2023-05-02T10:25:10;102214.66;;;11.94;52.39
15308;BME280;7755;52.208;6.964;2023-05-02T10:29:15;102210.88;;;11.95;52.33
15308;BME280;7755;52.208;6.964;2023-05-02T10:33:19;102213.59;;;12.01;51.89
15308;BME280;7755;52.208;6.964;2023-05-02T10:37:23;102226.75;;;12.18;51.40
15308;BME280;7755;52.208;6.964;2023-05-02T10:41:29;102221.47;;;12.29;50.71
15308;BME280;7755;52.208;6.964;2023-05-02T10:45:36;102228.19;;;12.34;51.59
15308;BME280;7755;52.208;6.964;2023-05-02T10:49:48;102230.69;;;12.42;51.10
15308;BME280;7755;52.208;6.964;2023-05-02T10:53:51;102231.75;;;12.34;52.61
15308;BME280;7755;52.208;6.964;2023-05-02T10:58:18;102226.19;;;12.61;52.35
15308;BME280;7755;52.208;6.964;2023-05-02T11:02:47;102227.47;;;12.51;52.06
15308;BME280;7755;52.208;6.964;2023-05-02T11:07:15;102220.28;;;12.64;50.63
15308;BME280;7755;52.208;6.964;2023-05-02T11:11:38;102221.97;;;12.65;49.12
15308;BME280;7755;52.208;6.964;2023-05-02T11:15:54;102226.50;;;12.84;48.86
15308;BME280;7755;52.208;6.964;2023-05-02T11:20:23;102232.22;;;12.76;48.10
15308;BME280;7755;52.208;6.964;2023-05-02T11:24:37;102238.72;;;12.75;48.13
15308;BME280;7755;52.208;6.964;2023-05-02T11:28:42;102229.22;;;12.84;48.85
15308;BME280;7755;52.208;6.964;2023-05-02T12:38:07;102277.63;;;14.15;43.59
15308;BME280;7755;52.208;6.964;2023-05-02T12:42:11;102272.78;;;14.35;44.49
15308;BME280;7755;52.208;6.964;2023-05-02T12:46:14;102284.09;;;14.20;43.40
15308;BME280;7755;52.208;6.964;2023-05-02T12:50:17;102275.66;;;14.47;43.82
15308;BME280;7755;52.208;6.964;2023-05-02T12:54:21;102282.78;;;14.85;42.48
15308;BME280;7755;52.208;6.964;2023-05-02T12:58:24;102285.53;;;15.15;42.56
15308;BME280;7755;52.208;6.964;2023-05-02T13:02:29;102282.00;;;15.68;43.05
15308;BME280;7755;52.208;6.964;2023-05-02T13:06:32;102301.00;;;16.16;39.91
15308;BME280;7755;52.208;6.964;2023-05-02T13:10:39;102291.72;;;15.52;41.09
15308;BME280;7755;52.208;6.964;2023-05-02T13:14:42;102297.91;;;15.47;40.57
15308;BME280;7755;52.208;6.964;2023-05-02T13:18:45;102294.88;;;15.67;39.63
15308;BME280;7755;52.208;6.964;2023-05-02T13:22:48;102298.16;;;15.57;39.80
15308;BME280;7755;52.208;6.964;2023-05-02T13:26:53;102296.13;;;15.95;40.35
15308;BME280;7755;52.208;6.964;2023-05-02T13:30:56;102288.13;;;15.93;39.69
15308;BME280;7755;52.208;6.964;2023-05-02T13:34:58;102289.09;;;15.87;39.83
15308;BME280;7755;52.208;6.964;2023-05-02T13:39:01;102301.38;;;15.96;40.40
15308;BME280;7755;52.208;6.964;2023-05-02T13:43:06;102298.50;;;16.03;40.17
15308;BME280;7755;52.208;6.964;2023-05-02T13:47:09;102291.69;;;16.17;40.50
15308;BME280;7755;52.208;6.964;2023-05-02T13:51:11;102303.28;;;16.43;39.02
15308;BME280;7755;52.208;6.964;2023-05-02T13:55:14;102298.00;;;16.53;38.94
15308;BME280;7755;52.208;6.964;2023-05-02T13:59:18;102306.25;;;16.53;39.86
15308;BME280;7755;52.208;6.964;2023-05-02T14:03:21;102307.03;;;16.65;39.34
15308;BME280;7755;52.208;6.964;2023-05-02T14:07:24;102297.78;;;16.54;39.08
15308;BME280;7755;52.208;6.964;2023-05-02T14:11:26;102297.66;;;16.37;38.21
15308;BME280;7755;52.208;6.964;2023-05-02T14:15:30;102305.53;;;16.10;38.99
15308;BME280;7755;52.208;6.964;2023-05-02T14:19:33;102308.03;;;16.24;39.78
15308;BME280;7755;52.208;6.964;2023-05-02T14:23:36;102303.41;;;16.13;39.65
15308;BME280;7755;52.208;6.964;2023-05-02T14:27:39;102310.50;;;15.67;40.50
15308;BME280;7755;52.208;6.964;2023-05-02T14:31:43;102298.69;;;15.24;40.68
15308;BME280;7755;52.208;6.964;2023-05-02T14:35:47;102306.81;;;15.43;41.28
15308;BME280;7755;52.208;6.964;2023-05-02T14:39:50;102305.63;;;15.09;40.75
15308;BME280;7755;52.208;6.964;2023-05-02T14:43:56;102298.97;;;14.86;40.82
15308;BME280;7755;52.208;6.964;2023-05-02T14:48:00;102302.63;;;14.98;41.00
15308;BME280;7755;52.208;6.964;2023-05-02T14:52:03;102312.50;;;14.99;40.69
15308;BME280;7755;52.208;6.964;2023-05-02T14:56:11;102313.16;;;15.13;41.32
15308;BME280;7755;52.208;6.964;2023-05-02T15:00:14;102303.28;;;15.24;41.16
15308;BME280;7755;52.208;6.964;2023-05-02T15:04:19;102304.63;;;15.03;40.71
15308;BME280;7755;52.208;6.964;2023-05-02T15:08:21;102305.69;;;14.90;40.86
15308;BME280;7755;52.208;6.964;2023-05-02T15:12:25;102309.25;;;14.91;41.36
15308;BME280;7755;52.208;6.964;2023-05-02T15:16:28;102315.16;;;14.88;41.62
15308;BME280;7755;52.208;6.964;2023-05-02T15:20:32;102310.59;;;15.00;41.67
15308;BME280;7755;52.208;6.964;2023-05-02T15:24:35;102310.44;;;14.95;41.51
15308;BME280;7755;52.208;6.964;2023-05-02T15:28:38;102312.09;;;14.96;41.22
15308;BME280;7755;52.208;6.964;2023-05-02T15:32:41;102315.41;;;14.68;41.70
15308;BME280;7755;52.208;6.964;2023-05-02T15:36:45;102313.59;;;14.80;41.98
15308;BME280;7755;52.208;6.964;2023-05-02T15:40:54;102310.63;;;14.63;41.62
15308;BME280;7755;52.208;6.964;2023-05-02T15:44:57;102321.78;;;14.43;41.75
15308;BME280;7755;52.208;6.964;2023-05-02T15:49:00;102321.41;;;14.15;42.76
15308;BME280;7755;52.208;6.964;2023-05-02T15:53:04;102314.81;;;14.23;42.69
15308;BME280;7755;52.208;6.964;2023-05-02T15:57:07;102323.09;;;14.16;43.46
15308;BME280;7755;52.208;6.964;2023-05-02T16:01:10;102325.16;;;13.96;44.11
15308;BME280;7755;52.208;6.964;2023-05-02T16:05:13;102323.16;;;13.84;44.83
15308;BME280;7755;52.208;6.964;2023-05-02T16:09:17;102336.16;;;13.89;45.32
15308;BME280;7755;52.208;6.964;2023-05-02T16:13:21;102347.81;;;14.03;44.45
15308;BME280;7755;52.208;6.964;2023-05-02T16:17:24;102346.47;;;13.87;44.74
15308;BME280;7755;52.208;6.964;2023-05-02T16:21:26;102349.25;;;13.80;44.47
15308;BME280;7755;52.208;6.964;2023-05-02T16:25:31;102352.38;;;13.84;44.85
15308;BME280;7755;52.208;6.964;2023-05-02T16:29:33;102350.09;;;13.81;43.81
15308;BME280;7755;52.208;6.964;2023-05-02T16:33:36;102358.00;;;13.64;44.53
15308;BME280;7755;52.208;6.964;2023-05-02T16:37:40;102354.72;;;13.49;45.59
15308;BME280;7755;52.208;6.964;2023-05-02T16:41:44;102360.00;;;13.44;45.99
15308;BME280;7755;52.208;6.964;2023-05-02T16:45:47;102357.38;;;13.17;47.32
15308;BME280;7755;52.208;6.964;2023-05-02T16:49:53;102362.22;;;13.15;47.33
15308;BME280;7755;52.208;6.964;2023-05-02T16:53:56;102363.97;;;12.96;47.00
15308;BME280;7755;52.208;6.964;2023-05-02T16:58:00;102367.16;;;12.87;47.75
15308;BME280;7755;52.208;6.964;2023-05-02T17:02:02;102367.84;;;12.75;47.65
15308;BME280;7755;52.208;6.964;2023-05-02T17:06:05;102375.75;;;12.90;46.85
15308;BME280;7755;52.208;6.964;2023-05-02T17:10:09;102365.03;;;13.02;47.00
15308;BME280;7755;52.208;6.964;2023-05-02T17:14:14;102367.94;;;13.00;47.33
15308;BME280;7755;52.208;6.964;2023-05-02T17:18:16;102363.28;;;13.14;47.26
15308;BME280;7755;52.208;6.964;2023-05-02T17:22:19;102363.75;;;13.04;47.93
15308;BME280;7755;52.208;6.964;2023-05-02T17:26:22;102365.03;;;12.95;48.95
15308;BME280;7755;52.208;6.964;2023-05-02T17:30:26;102368.22;;;12.79;49.59
15308;BME280;7755;52.208;6.964;2023-05-02T17:34:29;102368.69;;;12.69;50.10
15308;BME280;7755;52.208;6.964;2023-05-02T17:38:33;102369.09;;;12.66;49.92
15308;BME280;7755;52.208;6.964;2023-05-02T17:42:42;102371.84;;;12.60;49.34
15308;BME280;7755;52.208;6.964;2023-05-02T17:46:47;102371.47;;;12.43;48.13
15308;BME280;7755;52.208;6.964;2023-05-02T17:50:50;102364.75;;;12.39;48.80
15308;BME280;7755;52.208;6.964;2023-05-02T17:54:53;102376.31;;;12.34;48.77
15308;BME280;7755;52.208;6.964;2023-05-02T17:58:56;102383.22;;;12.37;49.18
15308;BME280;7755;52.208;6.964;2023-05-02T18:03:01;102385.31;;;12.28;50.03
15308;BME280;7755;52.208;6.964;2023-05-02T18:07:04;102385.94;;;12.10;50.78
15308;BME280;7755;52.208;6.964;2023-05-02T18:11:12;102392.03;;;11.99;51.69
15308;BME280;7755;52.208;6.964;2023-05-02T18:15:15;102400.84;;;12.01;51.30
15308;BME280;7755;52.208;6.964;2023-05-02T18:19:19;102397.88;;;11.89;51.56
15308;BME280;7755;52.208;6.964;2023-05-02T18:23:23;102398.50;;;11.85;51.93
15308;BME280;7755;52.208;6.964;2023-05-02T18:27:26;102410.06;;;11.87;51.87
15308;BME280;7755;52.208;6.964;2023-05-02T18:31:28;102405.63;;;11.79;52.21
15308;BME280;7755;52.208;6.964;2023-05-02T18:35:33;102405.38;;;11.74;52.19
15308;BME280;7755;52.208;6.964;2023-05-02T18:39:37;102418.16;;;11.67;52.22
15308;BME280;7755;52.208;6.964;2023-05-02T18:43:39;102412.28;;;11.70;50.47
15308;BME280;7755;52.208;6.964;2023-05-02T18:47:42;102413.31;;;11.69;50.20
15308;BME280;7755;52.208;6.964;2023-05-02T18:51:46;102414.78;;;11.65;49.60
15308;BME280;7755;52.208;6.964;2023-05-02T18:55:49;102414.97;;;11.57;50.00
15308;BME280;7755;52.208;6.964;2023-05-02T18:59:51;102419.97;;;11.40;50.53
15308;BME280;7755;52.208;6.964;2023-05-02T19:03:54;102414.09;;;11.49;50.94
15308;BME280;7755;52.208;6.964;2023-05-02T19:07:59;102420.38;;;11.43;51.45
15308;BME280;7755;52.208;6.964;2023-05-02T19:12:02;102425.78;;;11.37;51.76
15308;BME280;7755;52.208;6.964;2023-05-02T19:16:08;102426.84;;;11.36;52.08
15308;BME280;7755;52.208;6.964;2023-05-02T19:20:11;102425.38;;;11.33;52.35
15308;BME280;7755;52.208;6.964;2023-05-02T19:24:15;102429.78;;;11.34;52.63
15308;BME280;7755;52.208;6.964;2023-05-02T19:28:18;102428.50;;;11.37;53.13
15308;BME280;7755;52.208;6.964;2023-05-02T19:32:22;102441.84;;;11.18;53.39
15308;BME280;7755;52.208;6.964;2023-05-02T19:36:25;102439.28;;;11.10;54.06
15308;BME280;7755;52.208;6.964;2023-05-02T19:40:30;102443.84;;;11.03;54.98
15308;BME280;7755;52.208;6.964;2023-05-02T19:44:32;102447.56;;;10.96;55.41
15308;BME280;7755;52.208;6.964;2023-05-02T19:48:35;102454.31;;;11.00;55.89
15308;BME280;7755;52.208;6.964;2023-05-02T19:52:38;102464.13;;;10.94;56.34
15308;BME280;7755;52.208;6.964;2023-05-02T19:56:43;102464.91;;;10.88;57.42
15308;BME280;7755;52.208;6.964;2023-05-02T20:00:49;102469.72;;;10.86;57.90
15308;BME280;7755;52.208;6.964;2023-05-02T20:04:52;102469.25;;;10.82;58.77
15308;BME280;7755;52.208;6.964;2023-05-02T20:08:55;102487.16;;;10.70;59.31
15308;BME280;7755;52.208;6.964;2023-05-02T20:12:59;102483.81;;;10.68;59.71
15308;BME280;7755;52.208;6.964;2023-05-02T20:17:02;102476.69;;;10.67;60.15
15308;BME280;7755;52.208;6.964;2023-05-02T20:21:05;102489.88;;;10.63;60.29
15308;BME280;7755;52.208;6.964;2023-05-02T20:25:08;102501.47;;;10.51;60.53
15308;BME280;7755;52.208;6.964;2023-05-02T20:29:13;102503.59;;;10.34;60.91
15308;BME280;7755;52.208;6.964;2023-05-02T20:33:16;102509.53;;;10.23;60.88
15308;BME280;7755;52.208;6.964;2023-05-02T20:37:20;102506.56;;;10.18;61.07
15308;BME280;7755;52.208;6.964;2023-05-02T20:41:23;102510.63;;;10.07;61.37
15308;BME280;7755;52.208;6.964;2023-05-02T20:45:28;102508.78;;;9.93;61.46
15308;BME280;7755;52.208;6.964;2023-05-02T20:49:31;102510.13;;;9.82;61.95
15308;BME280;7755;52.208;6.964;2023-05-02T20:53:34;102506.13;;;9.78;62.42
15308;BME280;7755;52.208;6.964;2023-05-02T20:57:39;102517.63;;;9.80;62.14
15308;BME280;7755;52.208;6.964;2023-05-02T21:01:43;102518.78;;;9.71;62.73
15308;BME280;7755;52.208;6.964;2023-05-02T21:05:51;102515.34;;;9.62;62.95
15308;BME280;7755;52.208;6.964;2023-05-02T21:09:54;102514.97;;;9.50;62.93
15308;BME280;7755;52.208;6.964;2023-05-02T21:13:57;102525.19;;;9.48;63.21
15308;BME280;7755;52.208;6.964;2023-05-02T21:18:02;102523.22;;;9.42;63.49
15308;BME280;7755;52.208;6.964;2023-05-02T21:22:05;102522.75;;;9.24;63.30
15308;BME280;7755;52.208;6.964;2023-05-02T21:26:08;102517.41;;;9.16;64.29
15308;BME280;7755;52.208;6.964;2023-05-02T21:30:11;102524.63;;;9.09;64.40
15308;BME280;7755;52.208;6.964;2023-05-02T21:34:16;102514.78;;;9.08;64.84
15308;BME280;7755;52.208;6.964;2023-05-02T21:38:19;102518.34;;;9.08;64.56
15308;BME280;7755;52.208;6.964;2023-05-02T21:42:22;102520.59;;;9.05;64.82
15308;BME280;7755;52.208;6.964;2023-05-02T21:46:24;102523.19;;;8.98;65.53
15308;BME280;7755;52.208;6.964;2023-05-02T21:50:29;102524.56;;;8.94;65.90
15308;BME280;7755;52.208;6.964;2023-05-02T21:54:32;102532.34;;;8.82;66.91
15308;BME280;7755;52.208;6.964;2023-05-02T21:58:35;102525.13;;;8.74;67.33
15308;BME280;7755;52.208;6.964;2023-05-02T22:02:37;102527.66;;;8.76;67.55
15308;BME280;7755;52.208;6.964;2023-05-02T22:06:41;102526.31;;;8.72;67.59
15308;BME280;7755;52.208;6.964;2023-05-02T22:10:44;102522.75;;;8.71;67.85
15308;BME280;7755;52.208;6.964;2023-05-02T22:14:47;102523.31;;;8.67;68.48
15308;BME280;7755;52.208;6.964;2023-05-02T22:18:50;102519.94;;;8.65;68.92
15308;BME280;7755;52.208;6.964;2023-05-02T22:22:54;102517.69;;;8.54;68.57
15308;BME280;7755;52.208;6.964;2023-05-02T22:26:57;102526.66;;;8.54;68.67
15308;BME280;7755;52.208;6.964;2023-05-02T22:30:59;102528.88;;;8.51;69.03
15308;BME280;7755;52.208;6.964;2023-05-02T22:35:02;102532.97;;;8.46;69.30
15308;BME280;7755;52.208;6.964;2023-05-02T22:39:06;102538.56;;;8.45;69.84
15308;BME280;7755;52.208;6.964;2023-05-02T22:43:13;102533.72;;;8.40;69.62